sensor_id;sensor_type;location;lat;lon;timestamp;P1;durP1;ratioP1;P2;durP2;ratioP2
9465;SDS011;4771;48.726;9.006;2024-03-06T00:01:07;3.60;;;2.30;;
9465;SDS011;4771;48.726;9.006;2024-03-06T00:03:35;4.03;;;2.03;;
9465;SDS011;4771;48.726;9.006;2024-03-06T00:06:02;2.13;;;1.90;;
9465;SDS011;4771;48.726;9.006;2024-03-06T00:08:29;3.57;;;2.50;;
9465;SDS011;4771;48.726;9.006;2024-03-06T00:10:56;3.70;;;2.40;;
9465;SDS011;4771;48.726;9.006;2024-03-06T00:13:23;2.87;;;2.20;;
9465;SDS011;4771;48.726;9.006;2024-03-06T00:15:50;3.20;;;2.40;;
9465;SDS011;4771;48.726;9.006;2024-03-06T00:18:17;2.60;;;2.17;;
9465;SDS011;4771;48.726;9.006;2024-03-06T00:20:45;5.13;;;3.00;;
9465;SDS011;4771;48.726;9.006;2024-03-06T00:23:12;3.30;;;2.17;;
9465;SDS011;4771;48.726;9.006;2024-03-06T00:25:39;4.50;;;2.67;;
9465;SDS011;4771;48.726;9.006;2024-03-06T00:28:06;2.90;;;2.60;;
9465;SDS011;4771;48.726;9.006;2024-03-06T00:30:32;6.00;;;2.80;;
9465;SDS011;4771;48.726;9.006;2024-03-06T00:32:59;5.60;;;2.80;;
9465;SDS011;4771;48.726;9.006;2024-03-06T00:35:26;3.23;;;2.63;;
9465;SDS011;4771;48.726;9.006;2024-03-06T00:37:55;3.93;;;2.90;;
9465;SDS011;4771;48.726;9.006;2024-03-06T00:40:22;4.87;;;3.13;;
9465;SDS011;4771;48.726;9.006;2024-03-06T00:42:48;3.30;;;3.00;;
9465;SDS011;4771;48.726;9.006;2024-03-06T00:45:15;5.03;;;2.77;;
9465;SDS011;4771;48.726;9.006;2024-03-06T00:47:42;5.27;;;3.17;;
9465;SDS011;4771;48.726;9.006;2024-03-06T00:50:09;5.03;;;3.13;;
9465;SDS011;4771;48.726;9.006;2024-03-06T00:52:36;4.67;;;2.93;;
9465;SDS011;4771;48.726;9.006;2024-03-06T00:55:05;3.20;;;2.70;;
9465;SDS011;4771;48.726;9.006;2024-03-06T00:57:32;4.93;;;2.90;;
9465;SDS011;4771;48.726;9.006;2024-03-06T00:59:59;3.10;;;2.43;;
9465;SDS011;4771;48.726;9.006;2024-03-06T01:02:26;4.47;;;2.93;;
9465;SDS011;4771;48.726;9.006;2024-03-06T01:04:53;4.90;;;2.80;;
9465;SDS011;4771;48.726;9.006;2024-03-06T01:07:21;4.03;;;2.87;;
9465;SDS011;4771;48.726;9.006;2024-03-06T01:09:48;4.63;;;3.03;;
9465;SDS011;4771;48.726;9.006;2024-03-06T01:12:16;4.40;;;2.97;;
9465;SDS011;4771;48.726;9.006;2024-03-06T01:14:43;3.17;;;2.57;;
9465;SDS011;4771;48.726;9.006;2024-03-06T01:17:10;4.30;;;2.20;;
9465;SDS011;4771;48.726;9.006;2024-03-06T01:19:37;3.60;;;2.90;;
9465;SDS011;4771;48.726;9.006;2024-03-06T01:22:04;3.33;;;2.60;;
9465;SDS011;4771;48.726;9.006;2024-03-06T01:24:31;3.93;;;2.80;;
9465;SDS011;4771;48.726;9.006;2024-03-06T01:26:58;5.20;;;2.80;;
9465;SDS011;4771;48.726;9.006;2024-03-06T01:29:29;3.07;;;2.57;;
9465;SDS011;4771;48.726;9.006;2024-03-06T01:31:55;6.73;;;3.07;;
9465;SDS011;4771;48.726;9.006;2024-03-06T01:34:22;4.30;;;2.97;;
9465;SDS011;4771;48.726;9.006;2024-03-06T01:36:50;4.60;;;2.90;;
9465;SDS011;4771;48.726;9.006;2024-03-06T01:39:16;3.80;;;3.00;;
9465;SDS011;4771;48.726;9.006;2024-03-06T01:41:46;4.20;;;3.03;;
9465;SDS011;4771;48.726;9.006;2024-03-06T01:44:14;5.73;;;2.50;;
9465;SDS011;4771;48.726;9.006;2024-03-06T01:46:42;3.93;;;2.13;;
9465;SDS011;4771;48.726;9.006;2024-03-06T01:49:10;2.70;;;2.13;;
9465;SDS011;4771;48.726;9.006;2024-03-06T01:51:38;2.33;;;1.90;;
9465;SDS011;4771;48.726;9.006;2024-03-06T01:54:06;4.13;;;2.07;;
9465;SDS011;4771;48.726;9.006;2024-03-06T01:56:34;6.73;;;2.00;;
9465;SDS011;4771;48.726;9.006;2024-03-06T01:59:03;3.40;;;2.37;;
9465;SDS011;4771;48.726;9.006;2024-03-06T02:01:30;3.20;;;2.50;;
9465;SDS011;4771;48.726;9.006;2024-03-06T02:03:59;3.60;;;2.70;;
9465;SDS011;4771;48.726;9.006;2024-03-06T02:06:26;3.20;;;2.03;;
9465;SDS011;4771;48.726;9.006;2024-03-06T02:08:54;3.27;;;2.30;;
9465;SDS011;4771;48.726;9.006;2024-03-06T02:11:21;2.57;;;2.20;;
9465;SDS011;4771;48.726;9.006;2024-03-06T02:13:49;3.67;;;2.23;;
9465;SDS011;4771;48.726;9.006;2024-03-06T02:16:16;4.20;;;2.50;;
9465;SDS011;4771;48.726;9.006;2024-03-06T02:18:51;2.63;;;2.10;;
9465;SDS011;4771;48.726;9.006;2024-03-06T02:21:20;2.53;;;2.17;;
9465;SDS011;4771;48.726;9.006;2024-03-06T02:23:48;2.20;;;1.80;;
9465;SDS011;4771;48.726;9.006;2024-03-06T02:26:16;3.10;;;1.90;;
9465;SDS011;4771;48.726;9.006;2024-03-06T02:28:46;2.80;;;1.77;;
9465;SDS011;4771;48.726;9.006;2024-03-06T02:31:14;3.03;;;1.83;;
9465;SDS011;4771;48.726;9.006;2024-03-06T02:33:42;2.17;;;1.80;;
9465;SDS011;4771;48.726;9.006;2024-03-06T02:36:09;2.40;;;1.70;;
9465;SDS011;4771;48.726;9.006;2024-03-06T02:38:37;2.43;;;1.80;;
9465;SDS011;4771;48.726;9.006;2024-03-06T02:41:04;3.47;;;2.00;;
9465;SDS011;4771;48.726;9.006;2024-03-06T02:43:32;3.23;;;2.10;;
9465;SDS011;4771;48.726;9.006;2024-03-06T02:45:59;4.00;;;2.07;;
9465;SDS011;4771;48.726;9.006;2024-03-06T02:48:26;4.60;;;1.97;;
9465;SDS011;4771;48.726;9.006;2024-03-06T02:50:52;4.40;;;1.77;;
9465;SDS011;4771;48.726;9.006;2024-03-06T02:53:19;2.10;;;1.70;;
9465;SDS011;4771;48.726;9.006;2024-03-06T02:55:48;2.47;;;1.60;;
9465;SDS011;4771;48.726;9.006;2024-03-06T02:58:15;2.97;;;2.13;;
9465;SDS011;4771;48.726;9.006;2024-03-06T03:00:42;2.23;;;1.60;;
9465;SDS011;4771;48.726;9.006;2024-03-06T03:03:09;2.90;;;1.90;;
9465;SDS011;4771;48.726;9.006;2024-03-06T03:05:37;3.03;;;1.80;;
9465;SDS011;4771;48.726;9.006;2024-03-06T03:08:04;2.53;;;1.60;;
9465;SDS011;4771;48.726;9.006;2024-03-06T03:10:32;5.77;;;2.00;;
9465;SDS011;4771;48.726;9.006;2024-03-06T03:13:01;1.90;;;1.63;;
9465;SDS011;4771;48.726;9.006;2024-03-06T03:15:29;3.30;;;2.03;;
9465;SDS011;4771;48.726;9.006;2024-03-06T03:17:57;3.40;;;1.90;;
9465;SDS011;4771;48.726;9.006;2024-03-06T03:20:24;2.53;;;1.70;;
9465;SDS011;4771;48.726;9.006;2024-03-06T03:22:51;4.83;;;1.90;;
9465;SDS011;4771;48.726;9.006;2024-03-06T03:25:18;2.90;;;2.03;;
9465;SDS011;4771;48.726;9.006;2024-03-06T03:27:46;3.90;;;1.90;;
9465;SDS011;4771;48.726;9.006;2024-03-06T03:30:15;6.07;;;2.20;;
9465;SDS011;4771;48.726;9.006;2024-03-06T03:32:46;4.60;;;2.20;;
9465;SDS011;4771;48.726;9.006;2024-03-06T03:35:13;3.77;;;2.60;;
9465;SDS011;4771;48.726;9.006;2024-03-06T03:37:40;3.73;;;2.30;;
9465;SDS011;4771;48.726;9.006;2024-03-06T03:40:08;5.50;;;2.37;;
9465;SDS011;4771;48.726;9.006;2024-03-06T03:42:37;3.30;;;2.40;;
9465;SDS011;4771;48.726;9.006;2024-03-06T03:45:04;4.00;;;2.20;;
9465;SDS011;4771;48.726;9.006;2024-03-06T03:47:33;4.03;;;2.33;;
9465;SDS011;4771;48.726;9.006;2024-03-06T03:50:00;4.93;;;2.27;;
9465;SDS011;4771;48.726;9.006;2024-03-06T03:52:26;4.07;;;2.47;;
9465;SDS011;4771;48.726;9.006;2024-03-06T03:54:53;4.97;;;2.17;;
9465;SDS011;4771;48.726;9.006;2024-03-06T03:57:20;3.67;;;2.00;;
9465;SDS011;4771;48.726;9.006;2024-03-06T03:59:47;4.07;;;2.27;;
9465;SDS011;4771;48.726;9.006;2024-03-06T04:02:14;2.53;;;2.30;;
9465;SDS011;4771;48.726;9.006;2024-03-06T04:04:42;4.33;;;2.37;;
9465;SDS011;4771;48.726;9.006;2024-03-06T04:07:09;4.03;;;2.27;;
9465;SDS011;4771;48.726;9.006;2024-03-06T04:09:36;5.90;;;2.90;;
9465;SDS011;4771;48.726;9.006;2024-03-06T04:12:04;4.80;;;2.53;;
9465;SDS011;4771;48.726;9.006;2024-03-06T04:14:31;3.40;;;2.37;;
9465;SDS011;4771;48.726;9.006;2024-03-06T04:16:57;4.53;;;2.60;;
9465;SDS011;4771;48.726;9.006;2024-03-06T04:19:24;3.70;;;2.30;;
9465;SDS011;4771;48.726;9.006;2024-03-06T04:21:52;6.97;;;2.60;;
9465;SDS011;4771;48.726;9.006;2024-03-06T04:24:19;3.57;;;2.53;;
9465;SDS011;4771;48.726;9.006;2024-03-06T04:26:46;5.17;;;2.70;;
9465;SDS011;4771;48.726;9.006;2024-03-06T04:29:13;5.37;;;2.67;;
9465;SDS011;4771;48.726;9.006;2024-03-06T04:31:41;7.47;;;3.03;;
9465;SDS011;4771;48.726;9.006;2024-03-06T04:34:07;5.23;;;2.80;;
9465;SDS011;4771;48.726;9.006;2024-03-06T04:36:34;4.10;;;2.57;;
9465;SDS011;4771;48.726;9.006;2024-03-06T04:39:02;4.23;;;2.40;;
9465;SDS011;4771;48.726;9.006;2024-03-06T04:41:32;3.23;;;2.77;;
9465;SDS011;4771;48.726;9.006;2024-03-06T04:43:59;5.23;;;2.80;;
9465;SDS011;4771;48.726;9.006;2024-03-06T04:46:26;7.47;;;3.00;;
9465;SDS011;4771;48.726;9.006;2024-03-06T04:48:53;4.40;;;2.60;;
9465;SDS011;4771;48.726;9.006;2024-03-06T04:51:19;3.77;;;2.50;;
9465;SDS011;4771;48.726;9.006;2024-03-06T04:53:46;4.23;;;2.90;;
9465;SDS011;4771;48.726;9.006;2024-03-06T04:56:15;4.80;;;2.87;;
9465;SDS011;4771;48.726;9.006;2024-03-06T04:58:44;5.70;;;3.03;;
9465;SDS011;4771;48.726;9.006;2024-03-06T05:01:11;5.07;;;2.80;;
9465;SDS011;4771;48.726;9.006;2024-03-06T05:03:38;3.37;;;2.70;;
9465;SDS011;4771;48.726;9.006;2024-03-06T05:06:05;3.93;;;2.70;;
9465;SDS011;4771;48.726;9.006;2024-03-06T05:08:32;3.93;;;3.07;;
9465;SDS011;4771;48.726;9.006;2024-03-06T05:10:59;3.63;;;2.70;;
9465;SDS011;4771;48.726;9.006;2024-03-06T05:13:28;5.27;;;2.87;;
9465;SDS011;4771;48.726;9.006;2024-03-06T05:15:55;4.23;;;2.70;;
9465;SDS011;4771;48.726;9.006;2024-03-06T05:18:22;4.07;;;2.93;;
9465;SDS011;4771;48.726;9.006;2024-03-06T05:20:49;6.70;;;2.90;;
9465;SDS011;4771;48.726;9.006;2024-03-06T05:23:16;4.50;;;2.83;;
9465;SDS011;4771;48.726;9.006;2024-03-06T05:25:43;3.90;;;2.90;;
9465;SDS011;4771;48.726;9.006;2024-03-06T05:28:10;3.73;;;2.73;;
9465;SDS011;4771;48.726;9.006;2024-03-06T05:30:38;3.67;;;2.67;;
9465;SDS011;4771;48.726;9.006;2024-03-06T05:33:05;3.63;;;2.80;;
9465;SDS011;4771;48.726;9.006;2024-03-06T05:35:32;5.73;;;2.80;;
9465;SDS011;4771;48.726;9.006;2024-03-06T05:37:58;4.63;;;3.10;;
9465;SDS011;4771;48.726;9.006;2024-03-06T05:40:25;4.97;;;3.10;;
9465;SDS011;4771;48.726;9.006;2024-03-06T05:42:52;3.33;;;2.87;;
9465;SDS011;4771;48.726;9.006;2024-03-06T05:45:19;3.47;;;2.80;;
9465;SDS011;4771;48.726;9.006;2024-03-06T05:47:47;3.67;;;3.10;;
9465;SDS011;4771;48.726;9.006;2024-03-06T05:50:15;5.77;;;3.50;;
9465;SDS011;4771;48.726;9.006;2024-03-06T05:52:42;4.27;;;3.10;;
9465;SDS011;4771;48.726;9.006;2024-03-06T05:55:09;6.53;;;3.23;;
9465;SDS011;4771;48.726;9.006;2024-03-06T05:57:36;3.90;;;2.93;;
9465;SDS011;4771;48.726;9.006;2024-03-06T06:00:03;4.63;;;3.07;;
9465;SDS011;4771;48.726;9.006;2024-03-06T06:02:36;4.47;;;3.13;;
9465;SDS011;4771;48.726;9.006;2024-03-06T06:05:05;4.47;;;2.87;;
9465;SDS011;4771;48.726;9.006;2024-03-06T06:07:33;5.47;;;2.97;;
9465;SDS011;4771;48.726;9.006;2024-03-06T06:10:00;4.63;;;2.90;;
9465;SDS011;4771;48.726;9.006;2024-03-06T06:12:27;3.67;;;2.90;;
9465;SDS011;4771;48.726;9.006;2024-03-06T06:14:53;4.73;;;3.27;;
9465;SDS011;4771;48.726;9.006;2024-03-06T06:17:20;5.40;;;3.00;;
9465;SDS011;4771;48.726;9.006;2024-03-06T06:19:47;4.63;;;3.07;;
9465;SDS011;4771;48.726;9.006;2024-03-06T06:22:16;4.33;;;3.00;;
9465;SDS011;4771;48.726;9.006;2024-03-06T06:24:42;6.40;;;3.20;;
9465;SDS011;4771;48.726;9.006;2024-03-06T06:27:10;3.50;;;2.70;;
9465;SDS011;4771;48.726;9.006;2024-03-06T06:29:37;3.93;;;3.17;;
9465;SDS011;4771;48.726;9.006;2024-03-06T06:32:04;4.47;;;3.20;;
9465;SDS011;4771;48.726;9.006;2024-03-06T06:34:31;6.90;;;3.00;;
9465;SDS011;4771;48.726;9.006;2024-03-06T06:36:58;5.13;;;2.70;;
9465;SDS011;4771;48.726;9.006;2024-03-06T06:39:26;4.63;;;2.90;;
9465;SDS011;4771;48.726;9.006;2024-03-06T06:41:53;6.00;;;3.33;;
9465;SDS011;4771;48.726;9.006;2024-03-06T06:44:20;5.53;;;3.50;;
9465;SDS011;4771;48.726;9.006;2024-03-06T06:46:49;3.67;;;2.83;;
9465;SDS011;4771;48.726;9.006;2024-03-06T06:49:16;5.93;;;2.77;;
9465;SDS011;4771;48.726;9.006;2024-03-06T06:51:44;4.17;;;2.87;;
9465;SDS011;4771;48.726;9.006;2024-03-06T06:54:11;5.17;;;3.30;;
9465;SDS011;4771;48.726;9.006;2024-03-06T06:56:39;4.13;;;2.80;;
9465;SDS011;4771;48.726;9.006;2024-03-06T06:59:06;3.60;;;2.67;;
9465;SDS011;4771;48.726;9.006;2024-03-06T07:01:33;5.97;;;3.07;;
9465;SDS011;4771;48.726;9.006;2024-03-06T07:04:00;6.03;;;3.20;;
9465;SDS011;4771;48.726;9.006;2024-03-06T07:06:28;4.20;;;2.77;;
9465;SDS011;4771;48.726;9.006;2024-03-06T07:08:55;4.93;;;2.80;;
9465;SDS011;4771;48.726;9.006;2024-03-06T07:11:21;5.77;;;2.83;;
9465;SDS011;4771;48.726;9.006;2024-03-06T07:13:50;4.13;;;2.40;;
9465;SDS011;4771;48.726;9.006;2024-03-06T07:16:17;7.47;;;3.10;;
9465;SDS011;4771;48.726;9.006;2024-03-06T07:18:44;4.53;;;2.63;;
9465;SDS011;4771;48.726;9.006;2024-03-06T07:21:11;4.40;;;2.73;;
9465;SDS011;4771;48.726;9.006;2024-03-06T07:23:38;4.83;;;3.03;;
9465;SDS011;4771;48.726;9.006;2024-03-06T07:26:05;7.33;;;2.90;;
9465;SDS011;4771;48.726;9.006;2024-03-06T07:28:32;5.07;;;3.23;;
9465;SDS011;4771;48.726;9.006;2024-03-06T07:31:00;3.57;;;2.90;;
9465;SDS011;4771;48.726;9.006;2024-03-06T07:33:27;4.53;;;3.10;;
9465;SDS011;4771;48.726;9.006;2024-03-06T07:35:56;5.20;;;2.93;;
9465;SDS011;4771;48.726;9.006;2024-03-06T07:38:22;5.83;;;2.90;;
9465;SDS011;4771;48.726;9.006;2024-03-06T07:40:49;4.13;;;2.70;;
9465;SDS011;4771;48.726;9.006;2024-03-06T07:43:17;4.07;;;2.90;;
9465;SDS011;4771;48.726;9.006;2024-03-06T07:45:43;4.77;;;3.03;;
9465;SDS011;4771;48.726;9.006;2024-03-06T07:48:14;3.77;;;2.87;;
9465;SDS011;4771;48.726;9.006;2024-03-06T07:50:41;4.97;;;3.00;;
9465;SDS011;4771;48.726;9.006;2024-03-06T07:53:08;3.97;;;2.90;;
9465;SDS011;4771;48.726;9.006;2024-03-06T07:55:34;6.67;;;3.23;;
9465;SDS011;4771;48.726;9.006;2024-03-06T07:58:01;4.83;;;2.73;;
9465;SDS011;4771;48.726;9.006;2024-03-06T08:00:28;3.97;;;2.57;;
9465;SDS011;4771;48.726;9.006;2024-03-06T08:02:56;4.50;;;2.63;;
9465;SDS011;4771;48.726;9.006;2024-03-06T08:05:24;4.47;;;2.53;;
9465;SDS011;4771;48.726;9.006;2024-03-06T08:07:51;3.77;;;2.73;;
9465;SDS011;4771;48.726;9.006;2024-03-06T08:10:18;5.60;;;3.20;;
9465;SDS011;4771;48.726;9.006;2024-03-06T08:12:45;4.13;;;2.53;;
9465;SDS011;4771;48.726;9.006;2024-03-06T08:15:13;5.20;;;2.53;;
9465;SDS011;4771;48.726;9.006;2024-03-06T08:17:41;5.67;;;2.70;;
9465;SDS011;4771;48.726;9.006;2024-03-06T08:20:09;4.07;;;2.80;;
9465;SDS011;4771;48.726;9.006;2024-03-06T08:22:38;3.50;;;2.40;;
9465;SDS011;4771;48.726;9.006;2024-03-06T08:25:07;4.47;;;2.60;;
9465;SDS011;4771;48.726;9.006;2024-03-06T08:27:35;6.10;;;2.77;;
9465;SDS011;4771;48.726;9.006;2024-03-06T08:30:03;4.30;;;2.50;;
9465;SDS011;4771;48.726;9.006;2024-03-06T08:32:31;3.97;;;2.70;;
9465;SDS011;4771;48.726;9.006;2024-03-06T08:34:58;3.97;;;2.70;;
9465;SDS011;4771;48.726;9.006;2024-03-06T08:37:25;6.87;;;2.77;;
9465;SDS011;4771;48.726;9.006;2024-03-06T08:39:53;4.53;;;2.43;;
9465;SDS011;4771;48.726;9.006;2024-03-06T08:42:20;7.63;;;4.33;;
9465;SDS011;4771;48.726;9.006;2024-03-06T08:44:47;9.27;;;3.90;;
9465;SDS011;4771;48.726;9.006;2024-03-06T08:47:14;5.30;;;3.03;;
9465;SDS011;4771;48.726;9.006;2024-03-06T08:49:41;4.27;;;2.73;;
9465;SDS011;4771;48.726;9.006;2024-03-06T08:52:08;4.03;;;2.40;;
9465;SDS011;4771;48.726;9.006;2024-03-06T08:54:36;4.40;;;2.47;;
9465;SDS011;4771;48.726;9.006;2024-03-06T08:57:04;6.13;;;2.80;;
9465;SDS011;4771;48.726;9.006;2024-03-06T08:59:31;3.57;;;2.63;;
9465;SDS011;4771;48.726;9.006;2024-03-06T09:01:58;6.13;;;3.30;;
9465;SDS011;4771;48.726;9.006;2024-03-06T09:04:37;3.70;;;2.77;;
9465;SDS011;4771;48.726;9.006;2024-03-06T09:07:04;5.33;;;2.90;;
9465;SDS011;4771;48.726;9.006;2024-03-06T09:09:31;4.87;;;2.60;;
9465;SDS011;4771;48.726;9.006;2024-03-06T09:11:58;5.37;;;3.27;;
9465;SDS011;4771;48.726;9.006;2024-03-06T09:14:27;5.97;;;2.90;;
9465;SDS011;4771;48.726;9.006;2024-03-06T09:16:53;4.67;;;2.77;;
9465;SDS011;4771;48.726;9.006;2024-03-06T09:19:20;5.03;;;2.90;;
9465;SDS011;4771;48.726;9.006;2024-03-06T09:21:48;7.57;;;4.90;;
9465;SDS011;4771;48.726;9.006;2024-03-06T09:24:14;7.37;;;3.77;;
9465;SDS011;4771;48.726;9.006;2024-03-06T09:26:41;4.73;;;3.30;;
9465;SDS011;4771;48.726;9.006;2024-03-06T09:29:09;4.83;;;3.00;;
9465;SDS011;4771;48.726;9.006;2024-03-06T09:31:37;5.53;;;3.10;;
9465;SDS011;4771;48.726;9.006;2024-03-06T09:34:04;3.77;;;3.10;;
9465;SDS011;4771;48.726;9.006;2024-03-06T09:36:31;3.93;;;3.10;;
9465;SDS011;4771;48.726;9.006;2024-03-06T09:38:58;7.40;;;3.43;;
9465;SDS011;4771;48.726;9.006;2024-03-06T09:41:25;6.57;;;3.50;;
9465;SDS011;4771;48.726;9.006;2024-03-06T09:43:52;4.60;;;3.17;;
9465;SDS011;4771;48.726;9.006;2024-03-06T09:46:19;6.10;;;2.97;;
9465;SDS011;4771;48.726;9.006;2024-03-06T09:48:48;4.20;;;3.40;;
9465;SDS011;4771;48.726;9.006;2024-03-06T09:51:17;4.57;;;3.57;;
9465;SDS011;4771;48.726;9.006;2024-03-06T09:53:46;3.83;;;3.13;;
9465;SDS011;4771;48.726;9.006;2024-03-06T09:56:14;6.47;;;3.50;;
9465;SDS011;4771;48.726;9.006;2024-03-06T09:58:42;5.00;;;3.80;;
9465;SDS011;4771;48.726;9.006;2024-03-06T10:01:08;5.27;;;4.07;;
9465;SDS011;4771;48.726;9.006;2024-03-06T10:03:37;6.27;;;4.43;;
9465;SDS011;4771;48.726;9.006;2024-03-06T10:06:07;5.83;;;4.40;;
9465;SDS011;4771;48.726;9.006;2024-03-06T10:08:35;6.00;;;4.60;;
9465;SDS011;4771;48.726;9.006;2024-03-06T10:11:03;6.60;;;4.30;;
9465;SDS011;4771;48.726;9.006;2024-03-06T10:13:31;7.30;;;4.33;;
9465;SDS011;4771;48.726;9.006;2024-03-06T10:15:58;5.03;;;4.17;;
9465;SDS011;4771;48.726;9.006;2024-03-06T10:18:26;5.73;;;4.50;;
9465;SDS011;4771;48.726;9.006;2024-03-06T10:20:54;6.57;;;4.20;;
9465;SDS011;4771;48.726;9.006;2024-03-06T10:23:22;8.17;;;5.10;;
9465;SDS011;4771;48.726;9.006;2024-03-06T10:25:50;6.00;;;4.47;;
9465;SDS011;4771;48.726;9.006;2024-03-06T10:28:17;6.90;;;4.60;;
9465;SDS011;4771;48.726;9.006;2024-03-06T10:30:48;7.23;;;5.23;;
9465;SDS011;4771;48.726;9.006;2024-03-06T10:33:17;7.23;;;5.17;;
9465;SDS011;4771;48.726;9.006;2024-03-06T10:35:45;5.87;;;5.03;;
9465;SDS011;4771;48.726;9.006;2024-03-06T10:38:13;9.20;;;5.60;;
9465;SDS011;4771;48.726;9.006;2024-03-06T10:40:42;7.20;;;5.60;;
9465;SDS011;4771;48.726;9.006;2024-03-06T10:43:10;8.33;;;6.00;;
9465;SDS011;4771;48.726;9.006;2024-03-06T10:45:44;7.63;;;5.47;;
9465;SDS011;4771;48.726;9.006;2024-03-06T10:48:14;7.87;;;5.73;;
9465;SDS011;4771;48.726;9.006;2024-03-06T10:50:43;10.37;;;7.17;;
9465;SDS011;4771;48.726;9.006;2024-03-06T10:53:12;10.73;;;7.57;;
9465;SDS011;4771;48.726;9.006;2024-03-06T10:55:42;8.73;;;7.40;;
9465;SDS011;4771;48.726;9.006;2024-03-06T10:58:10;11.10;;;8.50;;
9465;SDS011;4771;48.726;9.006;2024-03-06T11:00:38;10.90;;;8.87;;
9465;SDS011;4771;48.726;9.006;2024-03-06T11:03:06;9.10;;;8.10;;
9465;SDS011;4771;48.726;9.006;2024-03-06T11:05:34;10.57;;;9.20;;
9465;SDS011;4771;48.726;9.006;2024-03-06T11:08:04;11.87;;;8.80;;
9465;SDS011;4771;48.726;9.006;2024-03-06T11:10:32;12.53;;;9.37;;
9465;SDS011;4771;48.726;9.006;2024-03-06T11:13:01;12.17;;;9.60;;
9465;SDS011;4771;48.726;9.006;2024-03-06T11:15:29;12.13;;;9.57;;
9465;SDS011;4771;48.726;9.006;2024-03-06T11:17:57;11.93;;;9.70;;
9465;SDS011;4771;48.726;9.006;2024-03-06T11:20:23;11.60;;;9.43;;
9465;SDS011;4771;48.726;9.006;2024-03-06T11:23:02;12.57;;;9.97;;
9465;SDS011;4771;48.726;9.006;2024-03-06T11:28:38;11.07;;;9.63;;
9465;SDS011;4771;48.726;9.006;2024-03-06T11:31:08;11.90;;;10.00;;
9465;SDS011;4771;48.726;9.006;2024-03-06T11:33:38;14.60;;;10.13;;
9465;SDS011;4771;48.726;9.006;2024-03-06T11:36:12;12.00;;;10.53;;
9465;SDS011;4771;48.726;9.006;2024-03-06T11:38:42;13.63;;;11.37;;
9465;SDS011;4771;48.726;9.006;2024-03-06T11:41:09;13.10;;;10.87;;
9465;SDS011;4771;48.726;9.006;2024-03-06T11:43:43;15.27;;;11.33;;
9465;SDS011;4771;48.726;9.006;2024-03-06T11:46:16;14.00;;;11.17;;
9465;SDS011;4771;48.726;9.006;2024-03-06T11:48:43;14.53;;;11.10;;
9465;SDS011;4771;48.726;9.006;2024-03-06T11:51:18;14.13;;;11.50;;
9465;SDS011;4771;48.726;9.006;2024-03-06T11:53:45;13.80;;;11.37;;
9465;SDS011;4771;48.726;9.006;2024-03-06T11:56:15;13.37;;;11.03;;
9465;SDS011;4771;48.726;9.006;2024-03-06T11:58:44;17.97;;;11.43;;
9465;SDS011;4771;48.726;9.006;2024-03-06T12:01:12;14.67;;;11.53;;
9465;SDS011;4771;48.726;9.006;2024-03-06T12:03:39;13.40;;;11.00;;
9465;SDS011;4771;48.726;9.006;2024-03-06T12:06:07;13.77;;;11.37;;
9465;SDS011;4771;48.726;9.006;2024-03-06T12:08:34;13.97;;;10.97;;
9465;SDS011;4771;48.726;9.006;2024-03-06T12:11:02;15.93;;;12.40;;
9465;SDS011;4771;48.726;9.006;2024-03-06T12:13:29;12.67;;;11.07;;
9465;SDS011;4771;48.726;9.006;2024-03-06T12:15:58;14.17;;;11.50;;
9465;SDS011;4771;48.726;9.006;2024-03-06T12:18:24;12.47;;;11.17;;
9465;SDS011;4771;48.726;9.006;2024-03-06T12:20:51;14.53;;;11.77;;
9465;SDS011;4771;48.726;9.006;2024-03-06T12:23:19;15.87;;;10.80;;
9465;SDS011;4771;48.726;9.006;2024-03-06T12:26:01;12.33;;;10.40;;
9465;SDS011;4771;48.726;9.006;2024-03-06T12:28:29;16.93;;;11.10;;
9465;SDS011;4771;48.726;9.006;2024-03-06T12:30:57;12.63;;;11.03;;
9465;SDS011;4771;48.726;9.006;2024-03-06T12:33:27;17.33;;;12.03;;
9465;SDS011;4771;48.726;9.006;2024-03-06T12:36:01;15.40;;;12.57;;
9465;SDS011;4771;48.726;9.006;2024-03-06T12:38:29;12.37;;;10.93;;
9465;SDS011;4771;48.726;9.006;2024-03-06T12:40:56;14.87;;;10.77;;
9465;SDS011;4771;48.726;9.006;2024-03-06T12:43:24;15.37;;;11.77;;
9465;SDS011;4771;48.726;9.006;2024-03-06T12:45:51;13.10;;;10.37;;
9465;SDS011;4771;48.726;9.006;2024-03-06T12:48:21;13.80;;;10.60;;
9465;SDS011;4771;48.726;9.006;2024-03-06T12:50:48;13.07;;;10.90;;
9465;SDS011;4771;48.726;9.006;2024-03-06T12:53:17;12.83;;;10.27;;
9465;SDS011;4771;48.726;9.006;2024-03-06T12:55:44;13.10;;;10.87;;
9465;SDS011;4771;48.726;9.006;2024-03-06T12:58:11;13.43;;;10.93;;
9465;SDS011;4771;48.726;9.006;2024-03-06T13:00:38;13.80;;;10.87;;
9465;SDS011;4771;48.726;9.006;2024-03-06T13:03:05;12.70;;;9.97;;
9465;SDS011;4771;48.726;9.006;2024-03-06T13:05:35;11.47;;;10.23;;
9465;SDS011;4771;48.726;9.006;2024-03-06T13:08:02;15.07;;;10.67;;
9465;SDS011;4771;48.726;9.006;2024-03-06T13:10:29;13.77;;;10.20;;
9465;SDS011;4771;48.726;9.006;2024-03-06T13:12:55;10.87;;;9.77;;
9465;SDS011;4771;48.726;9.006;2024-03-06T13:15:22;13.43;;;9.60;;
9465;SDS011;4771;48.726;9.006;2024-03-06T13:17:49;12.43;;;9.47;;
9465;SDS011;4771;48.726;9.006;2024-03-06T13:20:16;12.33;;;10.13;;
9465;SDS011;4771;48.726;9.006;2024-03-06T13:22:45;13.50;;;10.40;;
9465;SDS011;4771;48.726;9.006;2024-03-06T13:25:12;12.27;;;10.30;;
9465;SDS011;4771;48.726;9.006;2024-03-06T13:27:39;13.57;;;10.53;;
9465;SDS011;4771;48.726;9.006;2024-03-06T13:30:06;12.80;;;10.10;;
9465;SDS011;4771;48.726;9.006;2024-03-06T13:32:37;11.80;;;9.67;;
9465;SDS011;4771;48.726;9.006;2024-03-06T13:35:04;12.50;;;10.83;;
9465;SDS011;4771;48.726;9.006;2024-03-06T13:37:34;12.63;;;10.73;;
9465;SDS011;4771;48.726;9.006;2024-03-06T13:40:02;11.70;;;9.87;;
9465;SDS011;4771;48.726;9.006;2024-03-06T13:42:32;13.23;;;10.00;;
9465;SDS011;4771;48.726;9.006;2024-03-06T13:44:59;16.07;;;10.40;;
9465;SDS011;4771;48.726;9.006;2024-03-06T13:47:29;10.97;;;9.80;;
9465;SDS011;4771;48.726;9.006;2024-03-06T13:49:56;11.97;;;10.40;;
9465;SDS011;4771;48.726;9.006;2024-03-06T13:52:23;12.13;;;10.10;;
9465;SDS011;4771;48.726;9.006;2024-03-06T13:54:51;11.13;;;9.93;;
9465;SDS011;4771;48.726;9.006;2024-03-06T13:57:19;11.80;;;10.10;;
9465;SDS011;4771;48.726;9.006;2024-03-06T13:59:46;12.73;;;10.53;;
9465;SDS011;4771;48.726;9.006;2024-03-06T14:02:13;15.07;;;11.03;;
9465;SDS011;4771;48.726;9.006;2024-03-06T14:04:40;12.20;;;10.40;;
9465;SDS011;4771;48.726;9.006;2024-03-06T14:07:07;12.50;;;10.53;;
9465;SDS011;4771;48.726;9.006;2024-03-06T14:09:33;12.57;;;10.27;;
9465;SDS011;4771;48.726;9.006;2024-03-06T14:12:00;12.90;;;10.73;;
9465;SDS011;4771;48.726;9.006;2024-03-06T14:14:29;12.93;;;10.40;;
9465;SDS011;4771;48.726;9.006;2024-03-06T14:16:56;11.63;;;9.83;;
9465;SDS011;4771;48.726;9.006;2024-03-06T14:19:23;12.23;;;10.13;;
9465;SDS011;4771;48.726;9.006;2024-03-06T14:21:50;13.30;;;10.47;;
9465;SDS011;4771;48.726;9.006;2024-03-06T14:24:17;12.30;;;10.63;;
9465;SDS011;4771;48.726;9.006;2024-03-06T14:26:45;13.90;;;10.67;;
9465;SDS011;4771;48.726;9.006;2024-03-06T14:29:14;13.67;;;10.40;;
9465;SDS011;4771;48.726;9.006;2024-03-06T14:31:42;12.30;;;10.23;;
9465;SDS011;4771;48.726;9.006;2024-03-06T14:34:09;11.67;;;9.63;;
9465;SDS011;4771;48.726;9.006;2024-03-06T14:36:36;11.53;;;10.13;;
9465;SDS011;4771;48.726;9.006;2024-03-06T14:39:03;12.67;;;10.10;;
9465;SDS011;4771;48.726;9.006;2024-03-06T14:41:30;10.27;;;9.17;;
9465;SDS011;4771;48.726;9.006;2024-03-06T14:43:57;11.63;;;9.87;;
9465;SDS011;4771;48.726;9.006;2024-03-06T14:46:24;12.33;;;9.87;;
9465;SDS011;4771;48.726;9.006;2024-03-06T14:48:52;11.73;;;9.40;;
9465;SDS011;4771;48.726;9.006;2024-03-06T14:51:19;11.27;;;9.50;;
9465;SDS011;4771;48.726;9.006;2024-03-06T14:53:46;10.53;;;9.43;;
9465;SDS011;4771;48.726;9.006;2024-03-06T14:56:13;10.27;;;9.17;;
9465;SDS011;4771;48.726;9.006;2024-03-06T14:58:40;11.27;;;10.00;;
9465;SDS011;4771;48.726;9.006;2024-03-06T15:01:07;10.97;;;9.17;;
9465;SDS011;4771;48.726;9.006;2024-03-06T15:03:34;12.87;;;9.40;;
9465;SDS011;4771;48.726;9.006;2024-03-06T15:06:02;12.27;;;10.03;;
9465;SDS011;4771;48.726;9.006;2024-03-06T15:08:30;12.60;;;10.50;;
9465;SDS011;4771;48.726;9.006;2024-03-06T15:10:57;12.33;;;9.40;;
9465;SDS011;4771;48.726;9.006;2024-03-06T15:13:24;13.60;;;10.03;;